»·PEaware :: N102GH KSEE-KSDM

N102GH :: KSEE-KSDM

FLIGHT INFORMATION

Flight Status: Arrived
Operator: Privately registered:
United States
More flights under this callsign
Pilot: Ludovic V. (42180)
Aircraft: CESSNA 172 SKYHAWK
(C172)
More flights by this aircraft type
Origin: KSEE Gillespie
United States
Destination: KSDM Brown Mun
United States
More flights between these airports :: More routes between these airports
Route: MZB
File this flight plan on PilotEdge
Remarks: RNAV 8L - FULL STOP - NO VISUAL APP
Altitude:
(Current/Filed)
4,000ft
Speed:
(Current/Filed)
100kts
Departed: 12-Feb-24 08:40 PM
Arrived: 12-Feb-24 09:07 PM
Distance/Time
Traveled:
15nm/0:26
Distance/Time
To Go:
Arrived

Flight Plot

Page will automatically refresh every two minutes.


Map Options




Map Legend


Flown Route
Filed Route
Departure Airport
Arrival Airport
Navaid (VOR, NDB)
Fix

Horizontal Profiles

Position Reports

Time Latitude Longitude Heading Altitude Ground
Speed
12-Feb-24 20:19 32.825679 -116.974249 13 368ft 0kts
12-Feb-24 20:20 32.825679 -116.974249 13 368ft 0kts
12-Feb-24 20:21 32.825679 -116.974249 13 368ft 0kts
12-Feb-24 20:22 32.825679 -116.974249 13 368ft 0kts
12-Feb-24 20:23 32.825679 -116.974249 13 368ft 0kts
12-Feb-24 20:24 32.825679 -116.974249 13 368ft 0kts
12-Feb-24 20:25 32.826348 -116.973699 111 368ft 16kts
12-Feb-24 20:26 32.825466 -116.968941 93 379ft 15kts
12-Feb-24 20:27 32.825346 -116.963922 351 395ft 9kts
12-Feb-24 20:28 32.825468 -116.964011 311 395ft 0kts
12-Feb-24 20:29 32.825470 -116.964013 309 395ft 0kts
12-Feb-24 20:30 32.825672 -116.964385 296 393ft 7kts
12-Feb-24 20:31 32.825388 -116.963976 318 395ft 0kts
12-Feb-24 20:32 32.825388 -116.963976 318 395ft 0kts
12-Feb-24 20:33 32.825388 -116.963976 318 395ft 0kts
12-Feb-24 20:34 32.825388 -116.963976 318 395ft 0kts
12-Feb-24 20:35 32.825388 -116.963976 318 395ft 0kts
12-Feb-24 20:36 32.825388 -116.963976 318 395ft 0kts
12-Feb-24 20:37 32.825388 -116.963976 318 395ft 0kts
12-Feb-24 20:38 32.826564 -116.965203 283 390ft 28kts
12-Feb-24 20:39 32.831347 -116.986451 316 1102ft 72kts
12-Feb-24 20:40 32.842158 -116.976025 83 1858ft 80kts
12-Feb-24 20:41 32.825692 -116.969049 186 2261ft 84kts
12-Feb-24 20:42 32.801479 -116.970727 186 2285ft 91kts
12-Feb-24 20:43 32.775745 -116.971876 213 2315ft 97kts
12-Feb-24 20:44 32.777245 -116.997616 282 3065ft 79kts
12-Feb-24 20:45 32.778079 -117.024174 270 3916ft 82kts
12-Feb-24 20:47 32.777354 -117.054319 268 4079ft 108kts
12-Feb-24 20:48 32.781615 -117.088870 282 4015ft 105kts
12-Feb-24 20:49 32.785616 -117.113462 276 3956ft 105kts
12-Feb-24 20:50 32.784008 -117.140298 259 3889ft 105kts
12-Feb-24 20:51 32.783907 -117.173686 277 3951ft 105kts
12-Feb-24 20:52 32.782719 -117.207217 270 4123ft 106kts
12-Feb-24 20:53 32.770700 -117.233288 160 4003ft 112kts
12-Feb-24 20:54 32.741094 -117.229863 184 4034ft 110kts
12-Feb-24 20:55 32.711951 -117.235441 156 4044ft 110kts
12-Feb-24 20:56 32.681805 -117.234690 178 4076ft 107kts
12-Feb-24 20:57 32.651369 -117.237566 182 4060ft 109kts
12-Feb-24 20:58 32.622460 -117.242528 134 3976ft 109kts
12-Feb-24 20:59 32.611616 -117.209477 96 3883ft 109kts
12-Feb-24 21:00 32.606244 -117.174955 123 3610ft 107kts
12-Feb-24 21:01 32.594760 -117.143016 105 3356ft 94kts
12-Feb-24 21:02 32.586437 -117.116812 112 2729ft 91kts
12-Feb-24 21:03 32.580299 -117.089158 90 2063ft 84kts
12-Feb-24 21:04 32.580179 -117.061647 96 1270ft 85kts
12-Feb-24 21:05 32.576288 -117.034367 88 759ft 81kts
12-Feb-24 21:06 32.575041 -117.009557 96 819ft 74kts
12-Feb-24 21:07 32.573482 -116.989969 96 522ft 0kts
12-Feb-24 21:08 32.572522 -116.984150 160 517ft 16kts
12-Feb-24 21:08 32.572052 -116.984141 185 517ft 0kts
12-Feb-24 21:09 32.572052 -116.984141 185 517ft 0kts
12-Feb-24 21:11 32.571154 -116.987091 273 519ft 24kts
12-Feb-24 21:12 32.572726 -116.993367 7 522ft 0kts
12-Feb-24 21:13 32.572726 -116.993367 7 522ft 0kts
12-Feb-24 21:13 32.572726 -116.993367 7 522ft 0kts

Navigation Log

Ident Type
Flight plan parsing failed, navigation log unavailable